createdAt,value
2018-12-17T00:02:08.635Z,1.40
2018-12-17T00:04:36.692Z,1.40
2018-12-17T00:07:04.308Z,1.40
2018-12-17T00:09:31.895Z,1.30
2018-12-17T00:11:59.634Z,1.40
2018-12-17T00:14:27.247Z,1.40
2018-12-17T00:16:54.830Z,1.40
2018-12-17T00:19:22.569Z,1.40
2018-12-17T00:21:50.174Z,1.40
2018-12-17T00:24:18.074Z,1.40
2018-12-17T00:26:46.166Z,1.40
2018-12-17T00:29:13.833Z,1.40
2018-12-17T00:31:43.196Z,1.30
2018-12-17T00:34:10.936Z,1.30
2018-12-17T00:39:06.857Z,1.40
2018-12-17T00:44:02.296Z,1.30
2018-12-17T00:46:29.938Z,1.30
2018-12-17T00:48:57.648Z,1.30
2018-12-17T00:51:25.395Z,1.30
2018-12-17T00:53:52.973Z,1.30
2018-12-17T00:56:20.844Z,1.30
2018-12-17T00:58:48.563Z,1.30
2018-12-17T01:01:16.138Z,1.30
2018-12-17T01:03:43.927Z,1.30
2018-12-17T01:06:11.543Z,1.30
2018-12-17T01:08:39.155Z,1.30
2018-12-17T01:11:07.028Z,1.30
2018-12-17T01:13:34.601Z,1.30
2018-12-17T01:16:05.565Z,1.30
2018-12-17T01:18:33.735Z,1.30
2018-12-17T01:21:01.323Z,1.30
2018-12-17T01:23:29.205Z,1.30
2018-12-17T01:25:57.117Z,1.30
2018-12-17T01:28:24.896Z,1.30
2018-12-17T01:30:52.503Z,1.30
2018-12-17T01:35:48.544Z,1.30
2018-12-17T01:38:16.181Z,1.30
2018-12-17T01:40:44.090Z,1.30
2018-12-17T01:43:11.680Z,1.30
2018-12-17T01:45:39.269Z,1.30
2018-12-17T01:48:07.032Z,2.80
2018-12-17T01:50:34.631Z,1.30
2018-12-17T01:55:29.951Z,1.30
2018-12-17T02:00:25.469Z,2.20
2018-12-17T02:05:20.794Z,1.30
2018-12-17T02:12:43.955Z,1.30
2018-12-17T02:15:11.547Z,1.30
2018-12-17T02:17:39.240Z,3.20
2018-12-17T02:20:07.075Z,1.30
2018-12-17T02:22:34.651Z,1.30
2018-12-17T02:25:02.631Z,1.30
2018-12-17T02:27:30.216Z,1.30
2018-12-17T02:29:57.782Z,1.20
2018-12-17T02:32:25.615Z,1.20
2018-12-17T02:34:53.215Z,1.20
2018-12-17T02:37:20.841Z,1.20
2018-12-17T02:42:16.211Z,1.20
2018-12-17T02:44:43.861Z,1.20
2018-12-17T02:47:11.581Z,1.20
2018-12-17T02:49:39.418Z,1.20
2018-12-17T03:01:57.732Z,1.10
2018-12-17T03:14:16.432Z,1.00
2018-12-17T03:19:11.839Z,1.00
2018-12-17T03:24:07.533Z,1.00
2018-12-17T03:26:35.165Z,0.90
2018-12-17T03:29:02.807Z,0.90
2018-12-17T03:31:30.889Z,0.80
2018-12-17T03:33:58.522Z,0.90
2018-12-17T03:36:26.197Z,0.80
2018-12-17T03:38:53.902Z,0.80
2018-12-17T03:41:21.496Z,0.80
2018-12-17T03:43:49.439Z,0.80
2018-12-17T03:46:17.398Z,0.70
2018-12-17T03:48:45.050Z,0.70
2018-12-17T03:53:40.492Z,0.60
2018-12-17T03:56:08.150Z,0.70
2018-12-17T03:58:35.719Z,0.70
2018-12-17T04:03:31.195Z,0.60
2018-12-17T04:05:58.814Z,0.60
2018-12-17T04:08:26.834Z,0.60
2018-12-17T04:10:54.463Z,0.60
2018-12-17T04:13:22.430Z,-1.40
2018-12-17T04:18:18.062Z,0.50
2018-12-17T04:20:46.049Z,0.50
2018-12-17T04:23:13.851Z,0.50
2018-12-17T04:25:41.440Z,0.50
2018-12-17T04:28:09.547Z,0.50
2018-12-17T04:30:38.684Z,0.40
2018-12-17T04:33:06.279Z,0.40
2018-12-17T04:35:33.889Z,0.40
2018-12-17T04:38:01.579Z,0.40
2018-12-17T04:40:29.589Z,0.30
2018-12-17T04:42:57.216Z,0.30
2018-12-17T04:45:26.097Z,0.30
2018-12-17T04:47:53.685Z,0.20
2018-12-17T04:52:49.500Z,0.20
2018-12-17T04:55:17.546Z,0.20
2018-12-17T04:57:45.360Z,0.30
2018-12-17T05:02:40.787Z,0.30
2018-12-17T05:05:08.668Z,0.30
2018-12-17T05:07:36.471Z,0.30
2018-12-17T05:10:05.254Z,0.30
2018-12-17T05:12:33.056Z,3.90
2018-12-17T05:15:00.817Z,0.30
2018-12-17T05:17:28.427Z,0.40
2018-12-17T05:19:56.020Z,0.40
2018-12-17T05:22:23.726Z,0.40
2018-12-17T05:24:51.352Z,0.40
2018-12-17T05:27:19.098Z,0.40
2018-12-17T05:29:46.964Z,0.40
2018-12-17T05:32:14.580Z,0.40
2018-12-17T05:34:42.149Z,2.90
2018-12-17T05:37:09.956Z,0.40
2018-12-17T05:39:37.743Z,0.50
2018-12-17T05:44:33.157Z,0.50
2018-12-17T05:47:00.752Z,0.50
2018-12-17T05:49:28.354Z,0.50
2018-12-17T05:51:56.028Z,0.50
2018-12-17T05:54:23.832Z,0.50
2018-12-17T05:59:19.579Z,0.50
2018-12-17T06:01:47.322Z,0.50
2018-12-17T06:04:14.975Z,0.50
2018-12-17T06:06:42.685Z,0.50
2018-12-17T06:09:11.816Z,0.50
2018-12-17T06:11:40.004Z,0.50
2018-12-17T06:14:07.836Z,0.50
2018-12-17T06:16:35.459Z,0.50
2018-12-17T06:19:03.071Z,0.40
2018-12-17T06:21:30.758Z,0.40
2018-12-17T06:23:58.357Z,0.50
2018-12-17T06:26:25.959Z,0.40
2018-12-17T06:28:53.655Z,0.50
2018-12-17T06:31:21.218Z,0.50
2018-12-17T06:33:48.963Z,0.50
2018-12-17T06:36:16.774Z,0.50
2018-12-17T06:38:44.621Z,0.50
2018-12-17T06:41:12.228Z,0.50
2018-12-17T06:43:40.023Z,0.50
2018-12-17T06:46:07.622Z,0.60
2018-12-17T06:48:35.207Z,0.60
2018-12-17T06:51:03.083Z,0.60
2018-12-17T06:53:30.662Z,0.60
2018-12-17T06:55:58.244Z,0.60
2018-12-17T06:58:26.354Z,0.60
2018-12-17T07:00:53.963Z,0.60
2018-12-17T07:03:21.535Z,0.60
2018-12-17T07:05:49.569Z,0.60
2018-12-17T07:08:19.234Z,0.60
2018-12-17T07:10:47.002Z,0.60
2018-12-17T07:13:15.045Z,0.60
2018-12-17T07:15:42.614Z,0.60
2018-12-17T07:18:10.276Z,0.60
2018-12-17T07:20:38.579Z,0.60
2018-12-17T07:23:06.161Z,0.60
2018-12-17T07:25:33.915Z,0.70
2018-12-17T07:28:01.830Z,0.70
2018-12-17T07:30:29.406Z,0.70
2018-12-17T07:32:57.011Z,0.70
2018-12-17T07:35:24.745Z,0.70
2018-12-17T07:37:52.332Z,0.70
2018-12-17T07:40:19.923Z,0.70
2018-12-17T07:42:47.913Z,0.70
2018-12-17T07:45:15.510Z,0.70
2018-12-17T07:47:43.108Z,0.70
2018-12-17T07:50:10.884Z,0.70
2018-12-17T07:52:39.667Z,0.70
2018-12-17T07:57:35.144Z,0.70
2018-12-17T08:02:30.871Z,0.70
2018-12-17T08:04:58.666Z,0.70
2018-12-17T08:12:21.645Z,0.50
2018-12-17T08:14:50.293Z,0.50
2018-12-17T08:19:46.020Z,0.50
2018-12-17T08:22:13.603Z,0.50
2018-12-17T08:24:41.239Z,0.40
2018-12-17T08:29:36.659Z,0.40
2018-12-17T08:32:04.259Z,0.40
2018-12-17T08:34:31.963Z,0.40
2018-12-17T08:36:59.540Z,0.50
2018-12-17T08:41:54.937Z,0.50
2018-12-17T08:44:22.863Z,0.50
2018-12-17T08:51:46.086Z,0.50
2018-12-17T08:56:41.611Z,0.50
2018-12-17T09:01:38.067Z,0.60
2018-12-17T09:11:29.112Z,0.60
2018-12-17T09:18:52.102Z,0.60
2018-12-17T09:21:19.763Z,0.60
2018-12-17T09:28:42.978Z,0.60
2018-12-17T09:31:10.566Z,0.60
2018-12-17T09:33:38.377Z,0.60
2018-12-17T09:36:05.958Z,0.60
2018-12-17T09:38:33.640Z,0.50
2018-12-17T09:43:28.946Z,0.60
2018-12-17T09:45:56.578Z,0.60
2018-12-17T09:48:24.360Z,0.60
2018-12-17T09:50:51.985Z,0.60
2018-12-17T09:53:20.564Z,0.60
2018-12-17T09:55:48.716Z,0.60
2018-12-17T09:58:16.346Z,0.60
2018-12-17T10:00:43.938Z,0.60
2018-12-17T10:03:11.890Z,0.60
2018-12-17T10:05:39.531Z,0.60
2018-12-17T10:08:07.175Z,0.60
2018-12-17T10:10:34.912Z,0.70
2018-12-17T10:13:02.515Z,0.70
2018-12-17T10:15:30.180Z,0.70
2018-12-17T10:17:57.872Z,0.80
2018-12-17T10:20:25.493Z,0.80
2018-12-17T10:22:53.168Z,0.80
2018-12-17T10:25:21.109Z,0.80
2018-12-17T10:27:48.780Z,0.80
2018-12-17T10:30:16.351Z,0.80
2018-12-17T10:32:44.020Z,0.80
2018-12-17T10:35:11.635Z,0.80
2018-12-17T10:40:09.031Z,0.80
2018-12-17T10:42:36.624Z,0.80
2018-12-17T10:45:05.243Z,0.80
2018-12-17T10:47:33.041Z,0.90
2018-12-17T10:50:00.622Z,0.90
2018-12-17T10:52:28.182Z,0.90
2018-12-17T10:54:55.878Z,0.90
2018-12-17T10:57:23.472Z,0.90
2018-12-17T10:59:51.088Z,0.90
2018-12-17T11:02:23.767Z,0.90
2018-12-17T11:04:53.439Z,0.80
2018-12-17T11:07:21.032Z,0.90
2018-12-17T11:12:17.068Z,1.00
2018-12-17T11:14:44.754Z,1.00
2018-12-17T11:17:12.556Z,1.00
2018-12-17T11:19:40.183Z,1.00
2018-12-17T11:22:07.795Z,1.00
2018-12-17T11:24:36.582Z,1.00
2018-12-17T11:27:04.279Z,1.00
2018-12-17T11:29:31.858Z,1.00
2018-12-17T11:31:59.662Z,1.00
2018-12-17T11:34:27.291Z,0.90
2018-12-17T11:36:54.862Z,1.00
2018-12-17T11:39:22.541Z,1.00
2018-12-17T11:41:50.128Z,1.00
2018-12-17T11:44:17.969Z,1.00
2018-12-17T11:46:45.693Z,1.00
2018-12-17T11:49:13.322Z,1.00
2018-12-17T11:51:41.234Z,1.10
2018-12-17T11:54:09.000Z,1.20
2018-12-17T11:59:18.370Z,1.30
2018-12-17T12:01:46.142Z,1.30
2018-12-17T12:04:14.236Z,1.30
2018-12-17T12:06:43.341Z,1.40
2018-12-17T12:09:12.939Z,1.40
2018-12-17T12:11:40.539Z,1.30
2018-12-17T12:14:08.242Z,1.40
2018-12-17T12:16:36.186Z,1.40
2018-12-17T12:19:03.767Z,1.40
2018-12-17T12:21:31.557Z,1.30
2018-12-17T12:23:59.117Z,1.30
2018-12-17T12:28:54.470Z,1.30
2018-12-17T12:31:22.097Z,1.30
2018-12-17T12:33:50.591Z,1.30
2018-12-17T12:36:18.731Z,1.30
2018-12-17T12:38:46.330Z,1.30
2018-12-17T12:41:14.050Z,1.40
2018-12-17T12:43:41.773Z,1.30
2018-12-17T12:48:37.110Z,1.30
2018-12-17T12:51:04.813Z,1.40
2018-12-17T12:53:32.435Z,1.40
2018-12-17T12:56:00.034Z,1.50
2018-12-17T13:00:55.391Z,1.60
2018-12-17T13:03:23.000Z,1.60
2018-12-17T13:05:50.771Z,1.60
2018-12-17T13:10:47.884Z,1.60
2018-12-17T13:13:15.697Z,1.60
2018-12-17T13:18:11.697Z,1.60
2018-12-17T13:20:39.411Z,1.60
2018-12-17T13:25:36.587Z,1.70
2018-12-17T13:28:04.335Z,1.70
2018-12-17T13:32:59.559Z,1.70
2018-12-17T13:35:27.338Z,1.70
2018-12-17T13:37:54.952Z,1.70
2018-12-17T13:55:54.100Z,1.50
2018-12-17T13:58:21.814Z,1.40
2018-12-17T14:00:49.640Z,1.40
2018-12-17T14:10:47.736Z,1.40
2018-12-17T14:15:49.408Z,1.30
2018-12-17T14:20:56.406Z,1.30
2018-12-17T14:50:35.337Z,1.30
2018-12-17T14:53:02.917Z,1.30
2018-12-17T14:55:30.506Z,1.30
2018-12-17T15:10:16.632Z,1.40
2018-12-17T15:17:39.972Z,1.40
2018-12-17T15:25:06.726Z,1.40
2018-12-17T15:27:34.503Z,1.40
2018-12-17T15:30:02.139Z,1.40
2018-12-17T15:32:29.851Z,1.40
2018-12-17T15:37:25.308Z,1.40
2018-12-17T15:39:53.269Z,1.30
2018-12-17T15:42:21.977Z,1.30
2018-12-17T15:44:49.773Z,1.30
2018-12-17T15:47:18.637Z,1.30
2018-12-17T15:49:46.895Z,1.20
2018-12-17T15:52:14.506Z,1.20
2018-12-17T15:54:42.115Z,1.20
2018-12-17T15:57:09.932Z,1.20
2018-12-17T15:59:37.678Z,1.20
2018-12-17T16:02:05.424Z,1.30
2018-12-17T16:07:01.643Z,1.30
2018-12-17T16:09:29.243Z,1.30
2018-12-17T16:11:57.075Z,1.40
2018-12-17T16:16:52.615Z,1.40
2018-12-17T16:21:48.455Z,1.40
2018-12-17T16:24:16.523Z,1.40
2018-12-17T16:26:44.212Z,1.40
2018-12-17T16:29:11.795Z,1.40
2018-12-17T16:31:39.767Z,1.40
2018-12-17T16:34:07.675Z,1.40
2018-12-17T16:39:04.680Z,1.40
2018-12-17T16:44:00.069Z,1.40
2018-12-17T16:46:27.909Z,1.40
2018-12-17T16:48:55.776Z,1.30
2018-12-17T16:51:23.568Z,1.30
2018-12-17T16:53:51.230Z,1.30
2018-12-17T16:56:20.211Z,1.30
2018-12-17T17:01:15.854Z,1.30
2018-12-17T17:06:11.268Z,1.30
2018-12-17T17:08:38.853Z,1.30
2018-12-17T17:11:06.623Z,1.40
2018-12-17T17:13:34.234Z,1.40
2018-12-17T17:16:02.075Z,1.40
2018-12-17T17:20:57.825Z,1.40
2018-12-17T17:23:25.416Z,1.40
2018-12-17T17:25:53.255Z,1.40
2018-12-17T17:33:16.613Z,1.50
2018-12-17T17:38:11.879Z,1.50
2018-12-17T17:40:39.642Z,1.50
2018-12-17T17:43:07.323Z,1.40
2018-12-17T17:45:34.980Z,1.40
2018-12-17T17:48:02.749Z,1.40
2018-12-17T17:50:30.371Z,1.50
2018-12-17T17:52:57.990Z,1.50
2018-12-17T17:55:25.841Z,1.40
2018-12-17T17:57:53.432Z,1.50
2018-12-17T18:00:21.259Z,1.40
2018-12-17T18:05:18.074Z,1.40
2018-12-17T18:07:46.758Z,1.40
2018-12-17T18:12:42.202Z,1.40
2018-12-17T18:15:09.833Z,1.50
2018-12-17T18:17:37.569Z,1.40
2018-12-17T18:20:05.829Z,1.40
2018-12-17T18:27:29.327Z,1.50
2018-12-17T18:32:26.108Z,1.40
2018-12-17T18:34:54.033Z,1.40
2018-12-17T18:37:21.633Z,1.40
2018-12-17T18:39:49.649Z,1.60
2018-12-17T18:44:47.498Z,1.50
2018-12-17T18:47:15.283Z,1.50
2018-12-17T18:49:42.920Z,1.50
2018-12-17T18:52:10.499Z,-0.60
2018-12-17T18:54:38.300Z,1.50
2018-12-17T18:59:33.855Z,1.50
2018-12-17T19:02:01.640Z,1.60
2018-12-17T19:04:29.271Z,1.50
2018-12-17T19:06:56.900Z,1.50
2018-12-17T19:09:24.883Z,1.50
2018-12-17T19:11:52.816Z,1.50
2018-12-17T19:16:49.712Z,1.50
2018-12-17T19:19:17.593Z,1.50
2018-12-17T19:21:45.420Z,1.60
2018-12-17T19:24:13.274Z,1.60
2018-12-17T19:26:40.956Z,1.60
2018-12-17T19:29:08.532Z,1.50
2018-12-17T19:31:36.365Z,1.50
2018-12-17T19:34:04.304Z,1.50
2018-12-17T19:39:00.283Z,1.60
2018-12-17T19:41:27.914Z,1.60
2018-12-17T19:43:55.900Z,1.60
2018-12-17T19:53:48.635Z,1.60
2018-12-17T19:56:16.261Z,1.70
2018-12-17T20:06:07.024Z,1.70
2018-12-17T20:08:34.826Z,1.60
2018-12-17T20:13:30.246Z,1.60
2018-12-17T20:18:25.601Z,1.60
2018-12-17T20:20:53.517Z,1.60
2018-12-17T20:55:21.677Z,1.70
2018-12-17T20:57:50.157Z,1.60
2018-12-17T21:00:18.928Z,1.60
2018-12-17T21:05:14.476Z,-0.20
2018-12-17T21:15:06.119Z,1.50
2018-12-17T21:20:01.471Z,1.50
2018-12-17T21:24:57.015Z,1.50
2018-12-17T21:27:24.794Z,1.50
2018-12-17T21:29:52.678Z,1.50
2018-12-17T21:34:48.457Z,1.40
2018-12-17T21:37:16.146Z,1.10
2018-12-17T21:39:43.798Z,1.40
2018-12-17T21:42:11.398Z,1.40
2018-12-17T21:49:34.484Z,1.40
2018-12-17T21:52:02.325Z,1.40
2018-12-17T21:54:29.908Z,1.40
2018-12-17T21:56:57.542Z,1.40
2018-12-17T21:59:25.629Z,1.30
2018-12-17T22:01:53.385Z,1.30
2018-12-17T22:04:21.268Z,1.30
2018-12-17T22:06:49.971Z,1.30
2018-12-17T22:09:17.915Z,1.30
2018-12-17T22:11:45.529Z,1.30
2018-12-17T22:14:13.267Z,1.20
2018-12-17T22:16:40.882Z,1.30
2018-12-17T22:19:08.583Z,1.30
2018-12-17T22:21:36.442Z,1.30
2018-12-17T22:26:31.905Z,1.30
2018-12-17T22:28:59.728Z,1.30
2018-12-17T22:31:27.334Z,1.30
2018-12-17T22:33:55.208Z,1.30
2018-12-17T22:36:22.921Z,1.30
2018-12-17T22:41:18.694Z,1.20
2018-12-17T22:43:46.469Z,1.20
2018-12-17T22:46:14.139Z,1.20
2018-12-17T22:48:41.822Z,1.20
2018-12-17T22:51:09.588Z,1.20
2018-12-17T22:53:37.198Z,1.20
2018-12-17T22:56:04.860Z,1.10
2018-12-17T22:58:32.600Z,1.10
2018-12-17T23:01:00.285Z,1.10
2018-12-17T23:03:28.043Z,1.10
2018-12-17T23:05:55.718Z,1.00
2018-12-17T23:08:23.344Z,1.10
2018-12-17T23:13:36.847Z,1.00
2018-12-17T23:16:16.462Z,1.00
2018-12-17T23:18:43.686Z,1.00
2018-12-17T23:21:11.735Z,1.00
2018-12-17T23:23:39.551Z,1.00
2018-12-17T23:26:07.140Z,1.00
2018-12-17T23:33:33.043Z,1.10
2018-12-17T23:35:59.963Z,1.10
2018-12-17T23:38:27.947Z,1.00
2018-12-17T23:40:55.554Z,-0.70
2018-12-17T23:43:23.242Z,1.10
2018-12-17T23:45:51.010Z,1.10
2018-12-17T23:48:19.139Z,1.10
2018-12-17T23:50:46.900Z,1.10
2018-12-17T23:55:42.347Z,1.10
2018-12-17T23:58:10.038Z,1.10
